Birken, Canada
Current Conditions -  °F | °C
As of 11:00 PM on Friday 24 Oct 2014 (Local Time) from CWLY Reporting Station
Overcast Overcast  
Wind Chill: 45°   Ceiling: 15000
Heat Index: 45°   Visibility: 9mi
Dew Point: 43°   Wind: 3mph
Humidity: 93%   Direction: 150°SSE
Pressure: 29.96"   Gusts: NA
Location:  50.48°N, 122.61°W
Report Text: CWLY 250600Z AUTO 15003KT 9SM BKN150 OVC170 07/06 A2996 RMK SLP150
Loading
Personal Weather Stations






























Interactive Weather Map
Tropical Storm Tracking
New forecast layout! Learn more

10-Day Weather Forecast

Advertisements
Track Severe Weather on mobile